sensor_id;sensor_type;location;lat;lon;timestamp;P1;durP1;ratioP1;P2;durP2;ratioP2
75021;SDS011;63583;49.976;20.182;2023-02-15T00:01:54;12.98;;;6.43;;
75021;SDS011;63583;49.976;20.182;2023-02-15T00:04:21;13.35;;;6.82;;
75021;SDS011;63583;49.976;20.182;2023-02-15T00:06:49;13.45;;;5.63;;
75021;SDS011;63583;49.976;20.182;2023-02-15T00:09:15;13.23;;;6.25;;
75021;SDS011;63583;49.976;20.182;2023-02-15T00:11:40;11.15;;;4.93;;
75021;SDS011;63583;49.976;20.182;2023-02-15T00:16:45;13.63;;;5.78;;
75021;SDS011;63583;49.976;20.182;2023-02-15T00:19:12;10.77;;;4.68;;
75021;SDS011;63583;49.976;20.182;2023-02-15T00:21:40;11.02;;;4.63;;
75021;SDS011;63583;49.976;20.182;2023-02-15T00:24:07;10.15;;;5.50;;
75021;SDS011;63583;49.976;20.182;2023-02-15T00:26:34;15.63;;;5.10;;
75021;SDS011;63583;49.976;20.182;2023-02-15T00:29:01;14.02;;;6.13;;
75021;SDS011;63583;49.976;20.182;2023-02-15T00:31:27;12.40;;;6.18;;
75021;SDS011;63583;49.976;20.182;2023-02-15T00:36:25;9.35;;;4.47;;
75021;SDS011;63583;49.976;20.182;2023-02-15T00:38:51;9.18;;;4.53;;
75021;SDS011;63583;49.976;20.182;2023-02-15T00:41:16;17.27;;;6.80;;
75021;SDS011;63583;49.976;20.182;2023-02-15T00:43:42;10.82;;;5.05;;
75021;SDS011;63583;49.976;20.182;2023-02-15T00:46:08;13.60;;;6.43;;
75021;SDS011;63583;49.976;20.182;2023-02-15T00:48:34;14.23;;;5.95;;
75021;SDS011;63583;49.976;20.182;2023-02-15T00:51:00;14.60;;;5.93;;
75021;SDS011;63583;49.976;20.182;2023-02-15T00:53:27;9.63;;;5.13;;
75021;SDS011;63583;49.976;20.182;2023-02-15T00:55:54;11.35;;;5.60;;
75021;SDS011;63583;49.976;20.182;2023-02-15T00:58:20;13.77;;;6.45;;
75021;SDS011;63583;49.976;20.182;2023-02-15T01:00:46;13.65;;;6.40;;
75021;SDS011;63583;49.976;20.182;2023-02-15T01:03:13;14.13;;;6.95;;
75021;SDS011;63583;49.976;20.182;2023-02-15T01:05:40;13.10;;;7.00;;
75021;SDS011;63583;49.976;20.182;2023-02-15T01:08:06;12.38;;;7.05;;
75021;SDS011;63583;49.976;20.182;2023-02-15T01:10:32;14.90;;;6.60;;
75021;SDS011;63583;49.976;20.182;2023-02-15T01:12:59;11.82;;;6.90;;
75021;SDS011;63583;49.976;20.182;2023-02-15T01:15:25;14.30;;;6.57;;
75021;SDS011;63583;49.976;20.182;2023-02-15T01:17:51;14.60;;;7.20;;
75021;SDS011;63583;49.976;20.182;2023-02-15T01:20:18;12.02;;;5.82;;
75021;SDS011;63583;49.976;20.182;2023-02-15T01:22:49;13.73;;;7.05;;
75021;SDS011;63583;49.976;20.182;2023-02-15T01:25:19;11.45;;;5.93;;
75021;SDS011;63583;49.976;20.182;2023-02-15T01:27:46;10.60;;;6.07;;
75021;SDS011;63583;49.976;20.182;2023-02-15T01:30:12;16.95;;;6.65;;
75021;SDS011;63583;49.976;20.182;2023-02-15T01:32:39;15.48;;;6.78;;
75021;SDS011;63583;49.976;20.182;2023-02-15T01:35:06;12.65;;;6.28;;
75021;SDS011;63583;49.976;20.182;2023-02-15T01:37:32;14.13;;;6.30;;
75021;SDS011;63583;49.976;20.182;2023-02-15T01:39:59;14.65;;;6.88;;
75021;SDS011;63583;49.976;20.182;2023-02-15T01:42:26;15.63;;;6.90;;
75021;SDS011;63583;49.976;20.182;2023-02-15T01:44:54;7.38;;;4.93;;
75021;SDS011;63583;49.976;20.182;2023-02-15T01:50:08;17.00;;;5.38;;
75021;SDS011;63583;49.976;20.182;2023-02-15T01:55:35;12.70;;;5.70;;
75021;SDS011;63583;49.976;20.182;2023-02-15T01:58:05;12.95;;;6.13;;
75021;SDS011;63583;49.976;20.182;2023-02-15T02:00:32;11.30;;;5.93;;
75021;SDS011;63583;49.976;20.182;2023-02-15T02:02:59;9.88;;;4.97;;
75021;SDS011;63583;49.976;20.182;2023-02-15T02:05:25;13.07;;;5.70;;
75021;SDS011;63583;49.976;20.182;2023-02-15T02:07:52;12.48;;;5.55;;
75021;SDS011;63583;49.976;20.182;2023-02-15T02:10:20;12.02;;;6.25;;
75021;SDS011;63583;49.976;20.182;2023-02-15T02:12:49;10.98;;;6.05;;
75021;SDS011;63583;49.976;20.182;2023-02-15T02:15:17;12.05;;;6.18;;
75021;SDS011;63583;49.976;20.182;2023-02-15T02:21:07;12.05;;;5.35;;
75021;SDS011;63583;49.976;20.182;2023-02-15T02:23:58;13.55;;;5.93;;
75021;SDS011;63583;49.976;20.182;2023-02-15T02:27:15;11.18;;;5.35;;
75021;SDS011;63583;49.976;20.182;2023-02-15T02:30:06;10.80;;;5.60;;
75021;SDS011;63583;49.976;20.182;2023-02-15T02:33:14;12.57;;;5.75;;
75021;SDS011;63583;49.976;20.182;2023-02-15T02:38:21;14.68;;;6.25;;
75021;SDS011;63583;49.976;20.182;2023-02-15T02:41:56;13.25;;;5.72;;
75021;SDS011;63583;49.976;20.182;2023-02-15T02:43:54;10.05;;;4.70;;
75021;SDS011;63583;49.976;20.182;2023-02-15T02:49:36;11.55;;;5.45;;
75021;SDS011;63583;49.976;20.182;2023-02-15T02:52:31;11.88;;;4.88;;
75021;SDS011;63583;49.976;20.182;2023-02-15T02:55:01;11.65;;;6.00;;
75021;SDS011;63583;49.976;20.182;2023-02-15T02:57:30;12.95;;;6.15;;
75021;SDS011;63583;49.976;20.182;2023-02-15T02:59:58;11.50;;;6.40;;
75021;SDS011;63583;49.976;20.182;2023-02-15T03:02:32;14.25;;;6.30;;
75021;SDS011;63583;49.976;20.182;2023-02-15T03:05:03;9.98;;;6.10;;
75021;SDS011;63583;49.976;20.182;2023-02-15T03:07:33;13.75;;;7.10;;
75021;SDS011;63583;49.976;20.182;2023-02-15T03:10:02;12.35;;;5.85;;
75021;SDS011;63583;49.976;20.182;2023-02-15T03:15:10;9.23;;;5.28;;
75021;SDS011;63583;49.976;20.182;2023-02-15T03:17:42;12.13;;;5.60;;
75021;SDS011;63583;49.976;20.182;2023-02-15T03:20:15;11.93;;;5.32;;
75021;SDS011;63583;49.976;20.182;2023-02-15T03:22:51;11.60;;;5.75;;
75021;SDS011;63583;49.976;20.182;2023-02-15T03:25:30;15.00;;;6.57;;
75021;SDS011;63583;49.976;20.182;2023-02-15T03:28:00;13.52;;;7.35;;
75021;SDS011;63583;49.976;20.182;2023-02-15T03:30:31;10.73;;;6.03;;
75021;SDS011;63583;49.976;20.182;2023-02-15T03:32:58;14.82;;;7.70;;
75021;SDS011;63583;49.976;20.182;2023-02-15T03:35:26;17.60;;;8.07;;
75021;SDS011;63583;49.976;20.182;2023-02-15T03:37:59;13.55;;;7.97;;
75021;SDS011;63583;49.976;20.182;2023-02-15T03:40:45;14.00;;;5.93;;
75021;SDS011;63583;49.976;20.182;2023-02-15T03:43:33;13.88;;;6.13;;
75021;SDS011;63583;49.976;20.182;2023-02-15T03:46:17;11.57;;;5.60;;
75021;SDS011;63583;49.976;20.182;2023-02-15T03:48:57;18.30;;;6.88;;
75021;SDS011;63583;49.976;20.182;2023-02-15T03:51:29;15.65;;;8.13;;
75021;SDS011;63583;49.976;20.182;2023-02-15T03:56:30;15.35;;;6.40;;
75021;SDS011;63583;49.976;20.182;2023-02-15T03:58:56;15.43;;;5.47;;
75021;SDS011;63583;49.976;20.182;2023-02-15T04:01:42;13.43;;;6.40;;
75021;SDS011;63583;49.976;20.182;2023-02-15T04:07:02;18.35;;;6.95;;
75021;SDS011;63583;49.976;20.182;2023-02-15T04:09:30;17.95;;;7.38;;
75021;SDS011;63583;49.976;20.182;2023-02-15T04:12:14;18.95;;;8.73;;
75021;SDS011;63583;49.976;20.182;2023-02-15T04:14:40;16.77;;;7.80;;
75021;SDS011;63583;49.976;20.182;2023-02-15T04:17:24;21.98;;;6.80;;
75021;SDS011;63583;49.976;20.182;2023-02-15T04:19:50;20.38;;;8.23;;
75021;SDS011;63583;49.976;20.182;2023-02-15T04:22:34;16.45;;;7.95;;
75021;SDS011;63583;49.976;20.182;2023-02-15T04:25:19;19.92;;;9.10;;
75021;SDS011;63583;49.976;20.182;2023-02-15T04:27:46;16.60;;;7.97;;
75021;SDS011;63583;49.976;20.182;2023-02-15T04:30:14;19.02;;;7.18;;
75021;SDS011;63583;49.976;20.182;2023-02-15T04:32:40;16.55;;;7.03;;
75021;SDS011;63583;49.976;20.182;2023-02-15T04:35:07;11.65;;;6.78;;
75021;SDS011;63583;49.976;20.182;2023-02-15T04:37:34;14.32;;;5.30;;
75021;SDS011;63583;49.976;20.182;2023-02-15T04:40:00;18.15;;;7.65;;
75021;SDS011;63583;49.976;20.182;2023-02-15T04:42:26;16.42;;;8.05;;
75021;SDS011;63583;49.976;20.182;2023-02-15T04:44:53;19.58;;;8.20;;
75021;SDS011;63583;49.976;20.182;2023-02-15T04:47:19;16.98;;;7.60;;
75021;SDS011;63583;49.976;20.182;2023-02-15T04:49:45;19.65;;;7.80;;
75021;SDS011;63583;49.976;20.182;2023-02-15T04:52:11;15.98;;;7.05;;
75021;SDS011;63583;49.976;20.182;2023-02-15T04:54:37;15.80;;;7.57;;
75021;SDS011;63583;49.976;20.182;2023-02-15T04:57:03;15.13;;;7.28;;
75021;SDS011;63583;49.976;20.182;2023-02-15T04:59:29;16.15;;;7.93;;
75021;SDS011;63583;49.976;20.182;2023-02-15T05:01:55;15.88;;;6.90;;
75021;SDS011;63583;49.976;20.182;2023-02-15T05:04:21;17.33;;;7.78;;
75021;SDS011;63583;49.976;20.182;2023-02-15T05:06:46;16.42;;;7.90;;
75021;SDS011;63583;49.976;20.182;2023-02-15T05:09:12;17.33;;;7.43;;
75021;SDS011;63583;49.976;20.182;2023-02-15T05:11:38;19.45;;;7.88;;
75021;SDS011;63583;49.976;20.182;2023-02-15T05:14:05;16.40;;;8.48;;
75021;SDS011;63583;49.976;20.182;2023-02-15T05:16:30;18.85;;;8.80;;
75021;SDS011;63583;49.976;20.182;2023-02-15T05:18:56;12.32;;;7.43;;
75021;SDS011;63583;49.976;20.182;2023-02-15T05:21:22;16.40;;;8.35;;
75021;SDS011;63583;49.976;20.182;2023-02-15T05:23:48;21.88;;;7.68;;
75021;SDS011;63583;49.976;20.182;2023-02-15T05:26:16;14.98;;;6.95;;
75021;SDS011;63583;49.976;20.182;2023-02-15T05:29:02;14.45;;;6.43;;
75021;SDS011;63583;49.976;20.182;2023-02-15T05:31:28;17.48;;;8.30;;
75021;SDS011;63583;49.976;20.182;2023-02-15T05:33:54;13.98;;;8.05;;
75021;SDS011;63583;49.976;20.182;2023-02-15T05:36:20;16.77;;;7.90;;
75021;SDS011;63583;49.976;20.182;2023-02-15T05:38:45;17.90;;;8.75;;
75021;SDS011;63583;49.976;20.182;2023-02-15T05:41:11;16.20;;;8.55;;
75021;SDS011;63583;49.976;20.182;2023-02-15T05:43:37;12.57;;;6.85;;
75021;SDS011;63583;49.976;20.182;2023-02-15T05:46:03;18.77;;;8.52;;
75021;SDS011;63583;49.976;20.182;2023-02-15T05:48:30;12.27;;;8.77;;
75021;SDS011;63583;49.976;20.182;2023-02-15T05:51:00;17.85;;;7.78;;
75021;SDS011;63583;49.976;20.182;2023-02-15T05:53:39;18.92;;;8.65;;
75021;SDS011;63583;49.976;20.182;2023-02-15T05:56:06;21.58;;;9.20;;
75021;SDS011;63583;49.976;20.182;2023-02-15T05:58:35;19.13;;;8.60;;
75021;SDS011;63583;49.976;20.182;2023-02-15T06:01:09;16.30;;;7.82;;
75021;SDS011;63583;49.976;20.182;2023-02-15T06:03:44;14.52;;;7.30;;
75021;SDS011;63583;49.976;20.182;2023-02-15T06:06:11;18.55;;;7.70;;
75021;SDS011;63583;49.976;20.182;2023-02-15T06:08:37;14.10;;;7.03;;
75021;SDS011;63583;49.976;20.182;2023-02-15T06:11:03;13.23;;;7.35;;
75021;SDS011;63583;49.976;20.182;2023-02-15T06:13:30;23.00;;;9.45;;
75021;SDS011;63583;49.976;20.182;2023-02-15T06:15:56;21.33;;;8.60;;
75021;SDS011;63583;49.976;20.182;2023-02-15T06:18:22;22.35;;;9.98;;
75021;SDS011;63583;49.976;20.182;2023-02-15T06:20:48;16.67;;;7.60;;
75021;SDS011;63583;49.976;20.182;2023-02-15T06:23:14;21.27;;;9.23;;
75021;SDS011;63583;49.976;20.182;2023-02-15T06:25:40;20.83;;;9.23;;
75021;SDS011;63583;49.976;20.182;2023-02-15T06:28:06;14.27;;;6.47;;
75021;SDS011;63583;49.976;20.182;2023-02-15T06:30:32;23.02;;;8.65;;
75021;SDS011;63583;49.976;20.182;2023-02-15T06:32:58;12.55;;;6.38;;
75021;SDS011;63583;49.976;20.182;2023-02-15T06:35:23;16.75;;;7.78;;
75021;SDS011;63583;49.976;20.182;2023-02-15T06:37:49;14.18;;;5.82;;
75021;SDS011;63583;49.976;20.182;2023-02-15T06:40:15;21.92;;;7.88;;
75021;SDS011;63583;49.976;20.182;2023-02-15T06:42:41;16.50;;;8.18;;
75021;SDS011;63583;49.976;20.182;2023-02-15T06:45:07;16.73;;;8.05;;
75021;SDS011;63583;49.976;20.182;2023-02-15T06:47:34;16.60;;;7.28;;
75021;SDS011;63583;49.976;20.182;2023-02-15T06:49:59;16.85;;;7.13;;
75021;SDS011;63583;49.976;20.182;2023-02-15T06:52:25;17.58;;;8.30;;
75021;SDS011;63583;49.976;20.182;2023-02-15T06:54:51;18.00;;;7.63;;
75021;SDS011;63583;49.976;20.182;2023-02-15T06:57:16;22.35;;;8.93;;
75021;SDS011;63583;49.976;20.182;2023-02-15T06:59:42;20.00;;;9.27;;
75021;SDS011;63583;49.976;20.182;2023-02-15T07:02:11;19.98;;;9.38;;
75021;SDS011;63583;49.976;20.182;2023-02-15T07:04:37;16.80;;;6.65;;
75021;SDS011;63583;49.976;20.182;2023-02-15T07:07:03;14.65;;;7.90;;
75021;SDS011;63583;49.976;20.182;2023-02-15T07:09:29;13.23;;;6.90;;
75021;SDS011;63583;49.976;20.182;2023-02-15T07:11:55;14.05;;;6.63;;
75021;SDS011;63583;49.976;20.182;2023-02-15T07:14:39;15.18;;;7.72;;
75021;SDS011;63583;49.976;20.182;2023-02-15T07:17:06;18.13;;;7.93;;
75021;SDS011;63583;49.976;20.182;2023-02-15T07:19:32;15.80;;;7.80;;
75021;SDS011;63583;49.976;20.182;2023-02-15T07:21:57;20.02;;;7.15;;
75021;SDS011;63583;49.976;20.182;2023-02-15T07:24:23;18.55;;;8.00;;
75021;SDS011;63583;49.976;20.182;2023-02-15T07:26:49;14.48;;;7.00;;
75021;SDS011;63583;49.976;20.182;2023-02-15T07:29:14;20.77;;;8.82;;
75021;SDS011;63583;49.976;20.182;2023-02-15T07:31:41;17.00;;;7.85;;
75021;SDS011;63583;49.976;20.182;2023-02-15T07:34:10;17.98;;;8.73;;
75021;SDS011;63583;49.976;20.182;2023-02-15T07:36:36;14.07;;;6.10;;
75021;SDS011;63583;49.976;20.182;2023-02-15T07:39:02;15.65;;;7.55;;
75021;SDS011;63583;49.976;20.182;2023-02-15T07:41:28;21.25;;;6.90;;
75021;SDS011;63583;49.976;20.182;2023-02-15T07:43:54;14.85;;;8.13;;
75021;SDS011;63583;49.976;20.182;2023-02-15T07:46:20;13.30;;;6.78;;
75021;SDS011;63583;49.976;20.182;2023-02-15T07:48:46;11.98;;;6.03;;
75021;SDS011;63583;49.976;20.182;2023-02-15T07:51:12;17.55;;;6.28;;
75021;SDS011;63583;49.976;20.182;2023-02-15T07:53:38;12.95;;;6.93;;
75021;SDS011;63583;49.976;20.182;2023-02-15T07:56:05;19.00;;;6.60;;
75021;SDS011;63583;49.976;20.182;2023-02-15T07:58:33;14.95;;;5.90;;
75021;SDS011;63583;49.976;20.182;2023-02-15T08:03:57;16.98;;;7.10;;
75021;SDS011;63583;49.976;20.182;2023-02-15T08:06:23;11.35;;;5.43;;
75021;SDS011;63583;49.976;20.182;2023-02-15T08:08:50;14.88;;;6.60;;
75021;SDS011;63583;49.976;20.182;2023-02-15T08:13:52;14.93;;;6.45;;
75021;SDS011;63583;49.976;20.182;2023-02-15T08:16:27;15.05;;;6.63;;
75021;SDS011;63583;49.976;20.182;2023-02-15T08:19:03;12.07;;;4.85;;
75021;SDS011;63583;49.976;20.182;2023-02-15T08:21:35;11.82;;;7.07;;
75021;SDS011;63583;49.976;20.182;2023-02-15T08:24:03;16.40;;;6.32;;
75021;SDS011;63583;49.976;20.182;2023-02-15T08:26:31;14.70;;;8.18;;
75021;SDS011;63583;49.976;20.182;2023-02-15T08:28:57;18.20;;;7.55;;
75021;SDS011;63583;49.976;20.182;2023-02-15T08:31:24;16.23;;;8.13;;
75021;SDS011;63583;49.976;20.182;2023-02-15T08:33:51;17.67;;;8.18;;
75021;SDS011;63583;49.976;20.182;2023-02-15T08:36:19;13.50;;;6.63;;
75021;SDS011;63583;49.976;20.182;2023-02-15T08:38:46;17.83;;;7.65;;
75021;SDS011;63583;49.976;20.182;2023-02-15T08:41:14;15.60;;;6.85;;
75021;SDS011;63583;49.976;20.182;2023-02-15T08:43:45;17.63;;;8.45;;
75021;SDS011;63583;49.976;20.182;2023-02-15T08:46:12;20.30;;;8.13;;
75021;SDS011;63583;49.976;20.182;2023-02-15T08:48:39;11.25;;;6.05;;
75021;SDS011;63583;49.976;20.182;2023-02-15T08:51:09;19.73;;;10.43;;
75021;SDS011;63583;49.976;20.182;2023-02-15T08:53:37;15.88;;;8.60;;
75021;SDS011;63583;49.976;20.182;2023-02-15T08:56:04;16.05;;;6.85;;
75021;SDS011;63583;49.976;20.182;2023-02-15T08:58:31;16.40;;;8.02;;
75021;SDS011;63583;49.976;20.182;2023-02-15T09:00:57;20.92;;;8.60;;
75021;SDS011;63583;49.976;20.182;2023-02-15T09:03:23;26.48;;;9.20;;
75021;SDS011;63583;49.976;20.182;2023-02-15T09:05:49;18.58;;;9.13;;
75021;SDS011;63583;49.976;20.182;2023-02-15T09:08:14;13.20;;;6.15;;
75021;SDS011;63583;49.976;20.182;2023-02-15T09:10:41;18.00;;;8.23;;
75021;SDS011;63583;49.976;20.182;2023-02-15T09:13:06;24.15;;;10.48;;
75021;SDS011;63583;49.976;20.182;2023-02-15T09:15:33;21.88;;;9.15;;
75021;SDS011;63583;49.976;20.182;2023-02-15T09:17:58;25.50;;;12.02;;
75021;SDS011;63583;49.976;20.182;2023-02-15T09:20:27;18.58;;;9.70;;
75021;SDS011;63583;49.976;20.182;2023-02-15T09:22:53;17.50;;;8.63;;
75021;SDS011;63583;49.976;20.182;2023-02-15T09:25:19;15.75;;;7.45;;
75021;SDS011;63583;49.976;20.182;2023-02-15T09:27:45;13.88;;;8.45;;
75021;SDS011;63583;49.976;20.182;2023-02-15T09:30:11;23.15;;;10.35;;
75021;SDS011;63583;49.976;20.182;2023-02-15T09:32:37;23.67;;;10.05;;
75021;SDS011;63583;49.976;20.182;2023-02-15T09:35:03;20.80;;;8.50;;
75021;SDS011;63583;49.976;20.182;2023-02-15T09:37:32;24.60;;;11.55;;
75021;SDS011;63583;49.976;20.182;2023-02-15T09:39:57;20.05;;;9.80;;
75021;SDS011;63583;49.976;20.182;2023-02-15T09:56:10;21.42;;;9.50;;
75021;SDS011;63583;49.976;20.182;2023-02-15T10:04:04;17.98;;;8.13;;
75021;SDS011;63583;49.976;20.182;2023-02-15T10:07:06;20.38;;;9.50;;
75021;SDS011;63583;49.976;20.182;2023-02-15T10:10:03;16.58;;;8.85;;
75021;SDS011;63583;49.976;20.182;2023-02-15T10:23:29;22.75;;;11.32;;
75021;SDS011;63583;49.976;20.182;2023-02-15T10:26:28;21.38;;;10.00;;
75021;SDS011;63583;49.976;20.182;2023-02-15T10:35:00;19.42;;;7.95;;
75021;SDS011;63583;49.976;20.182;2023-02-15T10:43:45;19.38;;;7.95;;
75021;SDS011;63583;49.976;20.182;2023-02-15T10:57:48;19.67;;;8.50;;
75021;SDS011;63583;49.976;20.182;2023-02-15T11:03:10;21.60;;;11.05;;
75021;SDS011;63583;49.976;20.182;2023-02-15T11:05:45;16.85;;;8.13;;
75021;SDS011;63583;49.976;20.182;2023-02-15T11:08:14;23.35;;;9.25;;
75021;SDS011;63583;49.976;20.182;2023-02-15T11:10:51;18.63;;;9.13;;
75021;SDS011;63583;49.976;20.182;2023-02-15T11:13:21;25.02;;;10.55;;
75021;SDS011;63583;49.976;20.182;2023-02-15T11:16:05;20.45;;;9.95;;
75021;SDS011;63583;49.976;20.182;2023-02-15T11:18:37;19.42;;;10.05;;
75021;SDS011;63583;49.976;20.182;2023-02-15T11:21:11;23.90;;;10.05;;
75021;SDS011;63583;49.976;20.182;2023-02-15T11:23:46;20.60;;;8.35;;
75021;SDS011;63583;49.976;20.182;2023-02-15T11:26:19;18.52;;;9.52;;
75021;SDS011;63583;49.976;20.182;2023-02-15T11:31:43;21.33;;;9.15;;
75021;SDS011;63583;49.976;20.182;2023-02-15T11:34:34;24.38;;;11.23;;
75021;SDS011;63583;49.976;20.182;2023-02-15T11:37:08;23.92;;;9.98;;
75021;SDS011;63583;49.976;20.182;2023-02-15T11:39:39;21.67;;;10.10;;
75021;SDS011;63583;49.976;20.182;2023-02-15T11:42:06;19.20;;;9.65;;
75021;SDS011;63583;49.976;20.182;2023-02-15T11:44:43;24.33;;;11.35;;
75021;SDS011;63583;49.976;20.182;2023-02-15T11:47:21;21.63;;;8.40;;
75021;SDS011;63583;49.976;20.182;2023-02-15T11:49:47;18.25;;;9.90;;
75021;SDS011;63583;49.976;20.182;2023-02-15T11:52:13;22.65;;;10.05;;
75021;SDS011;63583;49.976;20.182;2023-02-15T11:54:50;21.60;;;9.98;;
75021;SDS011;63583;49.976;20.182;2023-02-15T11:57:25;25.70;;;10.15;;
75021;SDS011;63583;49.976;20.182;2023-02-15T12:02:27;19.95;;;8.15;;
75021;SDS011;63583;49.976;20.182;2023-02-15T12:04:56;20.80;;;9.75;;
75021;SDS011;63583;49.976;20.182;2023-02-15T12:07:36;18.42;;;7.63;;
75021;SDS011;63583;49.976;20.182;2023-02-15T12:10:16;17.75;;;8.45;;
75021;SDS011;63583;49.976;20.182;2023-02-15T12:15:36;19.33;;;8.82;;
75021;SDS011;63583;49.976;20.182;2023-02-15T12:18:03;17.08;;;8.43;;
75021;SDS011;63583;49.976;20.182;2023-02-15T12:20:30;19.85;;;9.45;;
75021;SDS011;63583;49.976;20.182;2023-02-15T12:23:01;19.67;;;8.00;;
75021;SDS011;63583;49.976;20.182;2023-02-15T12:26:03;20.33;;;8.65;;
75021;SDS011;63583;49.976;20.182;2023-02-15T12:30:58;18.02;;;7.55;;
75021;SDS011;63583;49.976;20.182;2023-02-15T12:33:27;18.88;;;8.10;;
75021;SDS011;63583;49.976;20.182;2023-02-15T12:36:12;22.05;;;9.32;;
75021;SDS011;63583;49.976;20.182;2023-02-15T12:38:39;21.13;;;8.75;;
75021;SDS011;63583;49.976;20.182;2023-02-15T12:41:21;20.52;;;8.48;;
75021;SDS011;63583;49.976;20.182;2023-02-15T12:44:03;15.73;;;7.35;;
75021;SDS011;63583;49.976;20.182;2023-02-15T12:46:40;15.15;;;7.90;;
75021;SDS011;63583;49.976;20.182;2023-02-15T12:51:45;16.83;;;7.93;;
75021;SDS011;63583;49.976;20.182;2023-02-15T12:56:58;15.73;;;8.20;;
75021;SDS011;63583;49.976;20.182;2023-02-15T12:59:24;14.27;;;7.13;;
75021;SDS011;63583;49.976;20.182;2023-02-15T13:01:51;13.60;;;6.82;;
75021;SDS011;63583;49.976;20.182;2023-02-15T13:06:52;18.80;;;8.13;;
75021;SDS011;63583;49.976;20.182;2023-02-15T13:12:20;21.02;;;7.97;;
75021;SDS011;63583;49.976;20.182;2023-02-15T13:14:52;18.23;;;8.00;;
75021;SDS011;63583;49.976;20.182;2023-02-15T13:17:23;16.90;;;7.60;;
75021;SDS011;63583;49.976;20.182;2023-02-15T13:19:54;15.93;;;7.35;;
75021;SDS011;63583;49.976;20.182;2023-02-15T13:22:43;20.60;;;8.80;;
75021;SDS011;63583;49.976;20.182;2023-02-15T13:25:13;15.50;;;7.15;;
75021;SDS011;63583;49.976;20.182;2023-02-15T13:27:43;13.57;;;6.88;;
75021;SDS011;63583;49.976;20.182;2023-02-15T13:30:13;16.23;;;7.55;;
75021;SDS011;63583;49.976;20.182;2023-02-15T13:32:44;19.98;;;7.57;;
75021;SDS011;63583;49.976;20.182;2023-02-15T13:35:15;17.73;;;7.45;;
75021;SDS011;63583;49.976;20.182;2023-02-15T13:37:49;16.63;;;8.02;;
75021;SDS011;63583;49.976;20.182;2023-02-15T13:42:55;16.40;;;7.45;;
75021;SDS011;63583;49.976;20.182;2023-02-15T13:48:06;18.60;;;7.72;;
75021;SDS011;63583;49.976;20.182;2023-02-15T14:01:31;14.77;;;6.85;;
75021;SDS011;63583;49.976;20.182;2023-02-15T14:16:19;14.23;;;6.88;;
75021;SDS011;63583;49.976;20.182;2023-02-15T14:18:55;20.15;;;7.93;;
75021;SDS011;63583;49.976;20.182;2023-02-15T14:24:42;12.02;;;6.53;;
75021;SDS011;63583;49.976;20.182;2023-02-15T14:27:16;17.67;;;7.03;;
75021;SDS011;63583;49.976;20.182;2023-02-15T14:29:48;13.55;;;7.00;;
75021;SDS011;63583;49.976;20.182;2023-02-15T14:32:29;16.98;;;6.47;;
75021;SDS011;63583;49.976;20.182;2023-02-15T14:35:05;16.25;;;7.30;;
75021;SDS011;63583;49.976;20.182;2023-02-15T14:46:23;18.08;;;7.88;;
75021;SDS011;63583;49.976;20.182;2023-02-15T14:49:03;19.58;;;8.32;;
75021;SDS011;63583;49.976;20.182;2023-02-15T14:54:56;18.58;;;7.90;;
75021;SDS011;63583;49.976;20.182;2023-02-15T14:59:36;17.27;;;9.00;;
75021;SDS011;63583;49.976;20.182;2023-02-15T15:02:10;18.17;;;8.65;;
75021;SDS011;63583;49.976;20.182;2023-02-15T15:04:42;16.92;;;6.70;;
75021;SDS011;63583;49.976;20.182;2023-02-15T15:07:20;17.52;;;7.88;;
75021;SDS011;63583;49.976;20.182;2023-02-15T15:10:05;13.70;;;6.20;;
75021;SDS011;63583;49.976;20.182;2023-02-15T15:12:57;17.70;;;7.68;;
75021;SDS011;63583;49.976;20.182;2023-02-15T15:15:46;17.05;;;7.75;;
75021;SDS011;63583;49.976;20.182;2023-02-15T15:18:55;17.60;;;8.27;;
75021;SDS011;63583;49.976;20.182;2023-02-15T15:21:09;13.55;;;7.13;;
75021;SDS011;63583;49.976;20.182;2023-02-15T15:23:39;16.85;;;7.15;;
75021;SDS011;63583;49.976;20.182;2023-02-15T15:26:28;16.05;;;8.20;;
75021;SDS011;63583;49.976;20.182;2023-02-15T15:28:59;16.10;;;7.32;;
75021;SDS011;63583;49.976;20.182;2023-02-15T15:50:47;18.55;;;9.02;;
75021;SDS011;63583;49.976;20.182;2023-02-15T15:53:23;19.80;;;8.40;;
75021;SDS011;63583;49.976;20.182;2023-02-15T15:55:52;22.50;;;10.35;;
75021;SDS011;63583;49.976;20.182;2023-02-15T15:58:26;25.67;;;11.40;;
75021;SDS011;63583;49.976;20.182;2023-02-15T16:00:55;32.15;;;14.05;;
75021;SDS011;63583;49.976;20.182;2023-02-15T16:03:29;32.75;;;13.38;;
75021;SDS011;63583;49.976;20.182;2023-02-15T16:05:55;31.67;;;13.25;;
75021;SDS011;63583;49.976;20.182;2023-02-15T16:08:46;34.40;;;13.50;;
75021;SDS011;63583;49.976;20.182;2023-02-15T16:11:14;30.80;;;13.70;;
75021;SDS011;63583;49.976;20.182;2023-02-15T16:13:44;38.65;;;15.18;;
75021;SDS011;63583;49.976;20.182;2023-02-15T16:16:11;27.75;;;13.05;;
75021;SDS011;63583;49.976;20.182;2023-02-15T16:18:39;37.97;;;15.40;;
75021;SDS011;63583;49.976;20.182;2023-02-15T16:21:12;37.97;;;14.13;;
75021;SDS011;63583;49.976;20.182;2023-02-15T16:26:54;33.78;;;15.30;;
75021;SDS011;63583;49.976;20.182;2023-02-15T16:29:42;34.20;;;15.57;;
75021;SDS011;63583;49.976;20.182;2023-02-15T16:32:23;41.67;;;17.20;;
75021;SDS011;63583;49.976;20.182;2023-02-15T16:37:22;38.78;;;17.42;;
75021;SDS011;63583;49.976;20.182;2023-02-15T16:39:55;35.22;;;17.88;;
75021;SDS011;63583;49.976;20.182;2023-02-15T16:42:22;35.53;;;15.80;;
75021;SDS011;63583;49.976;20.182;2023-02-15T16:44:54;40.70;;;17.27;;
75021;SDS011;63583;49.976;20.182;2023-02-15T16:47:26;32.08;;;14.57;;
75021;SDS011;63583;49.976;20.182;2023-02-15T16:49:55;31.70;;;13.35;;
75021;SDS011;63583;49.976;20.182;2023-02-15T16:52:25;26.27;;;11.77;;
75021;SDS011;63583;49.976;20.182;2023-02-15T16:54:55;26.50;;;13.15;;
75021;SDS011;63583;49.976;20.182;2023-02-15T16:57:30;31.55;;;13.27;;
75021;SDS011;63583;49.976;20.182;2023-02-15T17:00:03;25.27;;;11.73;;
75021;SDS011;63583;49.976;20.182;2023-02-15T17:02:42;30.92;;;14.18;;
75021;SDS011;63583;49.976;20.182;2023-02-15T17:05:19;28.08;;;12.30;;
75021;SDS011;63583;49.976;20.182;2023-02-15T17:10:44;27.35;;;11.63;;
75021;SDS011;63583;49.976;20.182;2023-02-15T17:13:13;27.92;;;12.55;;
75021;SDS011;63583;49.976;20.182;2023-02-15T17:15:41;31.35;;;13.10;;
75021;SDS011;63583;49.976;20.182;2023-02-15T17:18:18;22.88;;;11.77;;
75021;SDS011;63583;49.976;20.182;2023-02-15T17:20:47;35.08;;;12.70;;
75021;SDS011;63583;49.976;20.182;2023-02-15T17:26:10;31.80;;;15.93;;
75021;SDS011;63583;49.976;20.182;2023-02-15T17:29:18;30.13;;;12.10;;
75021;SDS011;63583;49.976;20.182;2023-02-15T17:31:36;29.05;;;14.18;;
75021;SDS011;63583;49.976;20.182;2023-02-15T17:34:02;29.98;;;14.32;;
75021;SDS011;63583;49.976;20.182;2023-02-15T17:36:30;27.95;;;13.30;;
75021;SDS011;63583;49.976;20.182;2023-02-15T17:41:25;29.80;;;12.77;;
75021;SDS011;63583;49.976;20.182;2023-02-15T17:43:52;31.65;;;14.10;;
75021;SDS011;63583;49.976;20.182;2023-02-15T17:46:18;32.30;;;14.65;;
75021;SDS011;63583;49.976;20.182;2023-02-15T17:48:47;32.55;;;13.20;;
75021;SDS011;63583;49.976;20.182;2023-02-15T17:51:15;32.25;;;14.13;;